Time;durP1;ratioP1;P1;durP2;ratioP2;P2;SDS_P1;SDS_P2;PMS_P1;PMS_P2;Temp;Humidity;BMP_temperature;BMP_pressure;BME280_temperature;BME280_humidity;BME280_pressure;Samples;Min_cycle;Max_cycle;Signal;HPM_P1;HPM_P2
2022/05/12 00:00:12;;;;;;;9.88;5.13;;;;;;;20.24;100.00;96234.78;5068328;28;20079;-47
2022/05/12 00:02:42;;;;;;;7.18;5.45;;;;;;;20.20;100.00;96234.38;5066896;28;20068;-50
2022/05/12 00:05:10;;;;;;;5.90;5.30;;;;;;;20.11;100.00;96225.72;5065746;28;20064;-47
2022/05/12 00:07:40;;;;;;;7.28;5.40;;;;;;;20.07;100.00;96239.75;5060673;28;20498;-49
2022/05/12 00:10:10;;;;;;;7.80;5.88;;;;;;;19.93;100.00;96222.91;5066131;28;20091;-47
2022/05/12 00:12:39;;;;;;;8.35;5.47;;;;;;;19.82;100.00;96228.88;5062179;28;20553;-45
2022/05/12 00:15:11;;;;;;;6.60;5.53;;;;;;;19.57;100.00;96232.16;5068308;28;20526;-50
2022/05/12 00:17:44;;;;;;;6.40;5.80;;;;;;;19.56;100.00;96230.53;5067340;28;20526;-45
2022/05/12 00:20:13;;;;;;;7.18;5.50;;;;;;;19.53;100.00;96238.94;5063815;28;20075;-48
2022/05/12 00:22:41;;;;;;;7.13;5.68;;;;;;;19.56;100.00;96235.88;5068063;28;20075;-46
2022/05/12 00:25:12;;;;;;;5.93;5.40;;;;;;;19.54;100.00;96237.09;5069205;28;20076;-46
2022/05/12 00:27:41;;;;;;;8.45;5.40;;;;;;;19.36;100.00;96229.69;5066287;28;20083;-48
2022/05/12 00:30:11;;;;;;;6.20;5.55;;;;;;;19.17;100.00;96237.50;5062251;28;20068;-50
2022/05/12 00:32:43;;;;;;;6.85;5.28;;;;;;;19.54;100.00;96234.41;5064626;28;20068;-47
2022/05/12 00:35:14;;;;;;;7.45;5.22;;;;;;;19.34;100.00;96232.59;5066669;28;20076;-46
2022/05/12 00:37:43;;;;;;;7.53;5.47;;;;;;;19.21;100.00;96229.91;5061745;28;20060;-47
2022/05/12 00:40:13;;;;;;;7.03;5.43;;;;;;;19.59;100.00;96229.28;5067961;28;20534;-51
2022/05/12 00:42:53;;;;;;;6.10;5.07;;;;;;;19.62;100.00;96235.06;5061844;28;20554;-52
2022/05/12 00:45:22;;;;;;;5.57;4.95;;;;;;;19.55;100.00;96234.22;5065891;28;20067;-48
2022/05/12 00:47:51;;;;;;;8.25;5.60;;;;;;;19.51;100.00;96235.69;5067967;28;20064;-53
2022/05/12 00:50:21;;;;;;;6.70;5.40;;;;;;;19.62;100.00;96235.06;5062063;28;20072;-50
2022/05/12 00:52:50;;;;;;;6.07;4.63;;;;;;;19.63;100.00;96238.56;5064636;28;20059;-46
2022/05/12 00:55:22;;;;;;;8.32;5.50;;;;;;;19.96;100.00;96229.66;5061130;28;20088;-49
2022/05/12 00:57:52;;;;;;;5.80;5.20;;;;;;;19.77;100.00;96226.81;5064002;28;20083;-47
2022/05/12 01:00:21;;;;;;;7.30;5.25;;;;;;;19.68;100.00;96231.59;5064342;28;20536;-48
2022/05/12 01:02:54;;;;;;;7.13;5.20;;;;;;;19.78;100.00;96222.28;5065522;28;20162;-48
2022/05/12 01:05:23;;;;;;;6.20;5.32;;;;;;;19.80;100.00;96223.75;5066171;28;20458;-51
2022/05/12 01:07:55;;;;;;;8.02;5.20;;;;;;;19.76;100.00;96229.72;5067922;28;20556;-48
2022/05/12 01:10:24;;;;;;;5.78;4.85;;;;;;;19.75;100.00;96230.72;5067449;28;20090;-50
2022/05/12 01:12:52;;;;;;;5.07;4.60;;;;;;;19.76;100.00;96225.19;5062251;28;20103;-48
2022/05/12 01:15:24;;;;;;;6.15;4.93;;;;;;;19.80;100.00;96226.41;5061488;28;20079;-51
2022/05/12 01:18:04;;;;;;;7.00;5.03;;;;;;;20.04;100.00;96234.81;5063177;28;20056;-45
2022/05/12 01:20:33;;;;;;;7.43;4.97;;;;;;;19.95;100.00;96226.19;5064510;28;20071;-45
2022/05/12 01:23:05;;;;;;;5.88;4.47;;;;;;;20.06;100.00;96236.25;5068303;28;20064;-50
2022/05/12 01:25:36;;;;;;;6.55;4.53;;;;;;;20.07;100.00;96234.41;5064351;28;20062;-53
2022/05/12 01:28:04;;;;;;;7.05;4.65;;;;;;;20.17;100.00;96239.31;5061864;28;20090;-50
2022/05/12 01:30:33;;;;;;;5.97;4.70;;;;;;;20.33;100.00;96236.97;5065375;28;20060;-46
2022/05/12 01:33:01;;;;;;;5.70;4.70;;;;;;;20.36;100.00;96230.38;5062098;28;20076;-51
2022/05/12 01:35:30;;;;;;;6.03;4.50;;;;;;;20.35;100.00;96229.56;5061784;28;20073;-52
2022/05/12 01:37:58;;;;;;;11.05;4.47;;;;;;;20.45;100.00;96234.47;5064114;28;20071;-51
2022/05/12 01:40:27;;;;;;;6.50;4.68;;;;;;;20.47;100.00;96237.75;5064968;28;20091;-50
2022/05/12 01:42:56;;;;;;;6.03;4.50;;;;;;;20.73;100.00;96234.19;5065215;28;20076;-49
2022/05/12 01:45:26;;;;;;;4.88;4.47;;;;;;;20.58;100.00;96239.81;5062446;28;20087;-50
2022/05/12 01:47:54;;;;;;;6.10;4.57;;;;;;;20.66;100.00;96235.25;5066368;28;20060;-52
2022/05/12 01:50:23;;;;;;;5.90;4.88;;;;;;;20.71;100.00;96238.91;5062684;28;20502;-51
2022/05/12 01:52:51;;;;;;;7.10;4.72;;;;;;;20.71;100.00;96233.56;5060795;28;20098;-54
2022/05/12 01:55:21;;;;;;;8.85;4.90;;;;;;;20.64;100.00;96238.13;5059564;28;20075;-48
2022/05/12 01:57:49;;;;;;;8.18;4.70;;;;;;;20.63;100.00;96237.31;5066304;28;20091;-52
2022/05/12 02:00:22;;;;;;;6.00;4.60;;;;;;;20.43;100.00;96236.53;5056987;28;20060;-50
2022/05/12 02:02:51;;;;;;;7.25;4.78;;;;;;;20.49;100.00;96248.28;5061506;28;20473;-51
2022/05/12 02:05:19;;;;;;;6.10;5.10;;;;;;;20.45;100.00;96239.03;5056025;28;20079;-52
2022/05/12 02:07:49;;;;;;;7.18;4.65;;;;;;;20.56;100.00;96238.38;5055565;28;20476;-52
2022/05/12 02:10:20;;;;;;;6.05;5.38;;;;;;;20.53;100.00;96244.16;5060749;28;20538;-45
2022/05/12 02:12:49;;;;;;;6.30;4.63;;;;;;;20.38;100.00;96249.75;5062319;28;22063;-51
2022/05/12 02:15:19;;;;;;;4.85;4.45;;;;;;;20.60;100.00;96250.31;5063420;28;20049;-52
2022/05/12 02:17:49;;;;;;;;;;;;;;;20.51;100.00;96247.06;5061603;28;20663;-47
2022/05/12 02:20:19;;;;;;;4.95;4.40;;;;;;;20.51;100.00;96244.38;5065208;28;19960;-46
2022/05/12 02:22:47;;;;;;;16.83;4.65;;;;;;;20.60;100.00;96244.94;5060764;28;20441;-48
2022/05/12 02:25:16;;;;;;;7.18;4.40;;;;;;;20.53;100.00;96253.00;5066656;28;20482;-50
2022/05/12 02:27:45;;;;;;;5.18;4.32;;;;;;;20.53;100.00;96244.16;5060389;28;20473;-51
2022/05/12 02:30:17;;;;;;;5.22;4.50;;;;;;;20.58;100.00;96239.81;5064208;28;20071;-50
2022/05/12 02:32:47;;;;;;;7.13;4.30;;;;;;;20.73;100.00;96247.56;5064113;28;20060;-45
2022/05/12 02:35:16;;;;;;;6.90;4.30;;;;;;;20.44;100.00;96246.25;5065146;28;20113;-46
2022/05/12 02:37:45;;;;;;;5.45;4.78;;;;;;;20.56;100.00;96249.91;5064780;28;20091;-47
2022/05/12 02:40:16;;;;;;;6.20;4.82;;;;;;;20.53;100.00;96246.84;5062393;28;20091;-51
2022/05/12 02:42:44;;;;;;;5.78;4.50;;;;;;;20.45;100.00;96249.72;5065764;28;20087;-51
2022/05/12 02:45:13;;;;;;;5.97;4.57;;;;;;;20.53;100.00;96258.38;5064755;28;20068;-50
2022/05/12 02:47:42;;;;;;;5.03;4.53;;;;;;;20.59;100.00;96268.25;5064277;28;20103;-54
2022/05/12 02:50:13;;;;;;;5.68;4.35;;;;;;;20.63;100.00;96263.28;5063569;28;20053;-49
2022/05/12 02:52:42;;;;;;;5.07;4.43;;;;;;;20.55;100.00;96263.53;5068484;28;20506;-53
2022/05/12 02:55:11;;;;;;;7.20;4.60;;;;;;;20.45;100.00;96257.78;5059886;28;20462;-50
2022/05/12 02:57:41;;;;;;;7.22;4.40;;;;;;;20.59;100.00;96257.53;5065534;28;20068;-45
2022/05/12 03:00:13;;;;;;;5.78;4.72;;;;;;;20.46;100.00;96272.81;5060669;28;20505;-47
2022/05/12 03:02:42;;;;;;;5.25;4.57;;;;;;;20.47;100.00;96271.75;5062368;28;20071;-48
2022/05/12 03:05:12;;;;;;;6.07;4.50;;;;;;;20.36;100.00;96270.56;5062280;28;20064;-49
2022/05/12 03:07:42;;;;;;;5.50;4.40;;;;;;;20.52;100.00;96275.50;5066110;28;20063;-47
2022/05/12 03:10:12;;;;;;;5.55;3.88;;;;;;;20.23;100.00;96275.94;5062429;28;20087;-47
2022/05/12 03:12:40;;;;;;;5.55;4.47;;;;;;;20.23;100.00;96283.97;5060886;28;20582;-45
2022/05/12 03:15:09;;;;;;;7.80;4.80;;;;;;;20.17;100.00;96285.66;5058494;28;20710;-45
2022/05/12 03:17:38;;;;;;;6.57;5.15;;;;;;;20.03;100.00;96290.22;5062214;28;20036;-48
2022/05/12 03:20:10;;;;;;;6.78;5.03;;;;;;;19.86;100.00;96299.69;5069557;28;20074;-49
2022/05/12 03:22:39;;;;;;;9.52;4.72;;;;;;;19.69;100.00;96307.31;5062847;28;20063;-50
2022/05/12 03:25:10;;;;;;;7.13;5.00;;;;;;;19.68;100.00;96308.31;5066283;28;20072;-49
2022/05/12 03:27:40;;;;;;;8.55;4.95;;;;;;;19.58;100.00;96311.41;5064335;28;20072;-46
2022/05/12 03:30:11;;;;;;;6.63;4.50;;;;;;;19.71;100.00;96310.59;5068317;28;20537;-48
2022/05/12 03:32:40;;;;;;;5.80;4.53;;;;;;;19.79;100.00;96312.25;5065202;28;20072;-49
2022/05/12 03:35:09;;;;;;;9.88;5.20;;;;;;;19.98;100.00;96311.41;5063268;28;20526;-49
2022/05/12 03:37:40;;;;;;;8.80;4.93;;;;;;;19.99;100.00;96312.22;5066300;28;20044;-50
2022/05/12 03:40:09;;;;;;;;;;;;;;;19.75;100.00;96313.69;5070306;28;20084;-49
2022/05/12 03:42:37;;;;;;;7.72;4.72;;;;;;;19.84;100.00;96321.31;5068888;28;19967;-47
2022/05/12 03:45:06;;;;;;;5.70;5.00;;;;;;;19.89;100.00;96320.69;5065906;28;20072;-51
2022/05/12 03:47:36;;;;;;;7.88;5.07;;;;;;;19.92;100.00;96314.91;5065785;28;20075;-51
2022/05/12 03:50:08;;;;;;;8.15;4.97;;;;;;;19.71;100.00;96328.50;5067639;28;20080;-47
2022/05/12 03:52:37;;;;;;;8.55;5.20;;;;;;;19.71;100.00;96329.31;5052633;28;20056;-46
2022/05/12 03:55:10;;;;;;;7.15;4.82;;;;;;;19.73;100.00;96329.13;5070667;28;20075;-52
2022/05/12 03:57:40;;;;;;;5.65;4.90;;;;;;;19.64;100.00;96334.66;5062358;28;22838;-46
2022/05/12 04:00:12;;;;;;;6.50;4.95;;;;;;;19.63;100.00;96335.69;5068676;28;20439;-47
2022/05/12 04:02:41;;;;;;;5.72;5.10;;;;;;;19.55;100.00;96338.56;5069403;28;20137;-46
2022/05/12 04:05:09;;;;;;;5.63;4.95;;;;;;;19.45;100.00;96341.63;5067157;28;20060;-48
2022/05/12 04:07:41;;;;;;;5.43;4.93;;;;;;;19.43;100.00;96345.50;5063177;28;20570;-45
2022/05/12 04:10:13;;;;;;;7.32;4.82;;;;;;;19.64;100.00;96348.03;5066173;28;20072;-47
2022/05/12 04:12:41;;;;;;;8.10;4.68;;;;;;;19.70;100.00;96348.25;5066802;28;20087;-48
2022/05/12 04:15:11;;;;;;;7.03;5.10;;;;;;;19.64;100.00;96353.38;5063127;28;20064;-46
2022/05/12 04:17:40;;;;;;;6.97;4.65;;;;;;;19.84;100.00;96352.59;5067829;28;20511;-53
2022/05/12 04:20:12;;;;;;;10.32;5.38;;;;;;;19.97;100.00;96349.09;5067208;28;20061;-50
2022/05/12 04:22:42;;;;;;;5.68;5.03;;;;;;;20.08;100.00;96351.97;5066203;28;20067;-46
2022/05/12 04:25:13;;;;;;;6.78;5.15;;;;;;;20.60;100.00;96355.63;5066873;28;20068;-47
2022/05/12 04:27:42;;;;;;;6.65;4.85;;;;;;;20.25;100.00;96365.75;5062218;28;20068;-47
2022/05/12 04:30:12;;;;;;;9.10;5.40;;;;;;;20.55;100.00;96360.81;5063023;28;20502;-46
2022/05/12 04:32:41;;;;;;;7.43;5.35;;;;;;;20.62;100.00;96366.16;5060776;28;20061;-48
2022/05/12 04:35:12;;;;;;;6.28;4.50;;;;;;;21.00;100.00;96373.44;5065694;28;20076;-54
2022/05/12 04:37:44;;;;;;;8.43;4.72;;;;;;;20.59;100.00;96377.28;5064294;28;20491;-51
2022/05/12 04:40:17;;;;;;;6.28;4.55;;;;;;;20.70;100.00;96381.16;5064705;28;20079;-49
2022/05/12 04:42:45;;;;;;;6.13;4.80;;;;;;;21.59;100.00;96384.94;5069682;28;20084;-48
2022/05/12 04:45:14;;;;;;;8.65;4.60;;;;;;;21.76;100.00;96389.59;5069607;28;20067;-52
2022/05/12 04:47:43;;;;;;;4.75;3.90;;;;;;;21.43;100.00;96392.44;5069552;28;20076;-49
2022/05/12 04:50:13;;;;;;;6.00;4.88;;;;;;;21.70;100.00;96389.63;5069474;28;20060;-46
2022/05/12 04:52:43;;;;;;;7.25;4.50;;;;;;;21.75;100.00;96396.00;5069017;28;20068;-50
2022/05/12 04:55:11;;;;;;;8.18;4.30;;;;;;;22.03;100.00;96390.22;5069934;28;20076;-47
2022/05/12 04:57:44;;;;;;;4.13;3.70;;;;;;;21.83;100.00;96405.66;5069513;28;20106;-47
2022/05/12 05:00:16;;;;;;;5.22;4.03;;;;;;;22.23;100.00;96402.72;5068718;28;20072;-46
2022/05/12 05:02:44;;;;;;;6.93;4.00;;;;;;;21.81;100.00;96403.16;5068653;28;20048;-52
2022/05/12 05:05:13;;;;;;;5.78;4.25;;;;;;;22.08;100.00;96405.66;5069255;28;20080;-47
2022/05/12 05:07:42;;;;;;;7.57;4.18;;;;;;;21.97;100.00;96409.06;5068970;28;20052;-49
2022/05/12 05:10:12;;;;;;;5.63;4.00;;;;;;;22.25;100.00;96412.16;5030866;28;1109923;-44
2022/05/12 05:12:41;;;;;;;9.27;4.30;;;;;;;22.09;100.00;96420.72;5069314;28;20079;-44
2022/05/12 05:15:12;;;;;;;6.20;3.90;;;;;;;22.23;100.00;96422.34;5069572;28;20068;-44
2022/05/12 05:17:42;;;;;;;4.63;3.75;;;;;;;21.97;100.00;96426.00;5069653;28;20072;-45
2022/05/12 05:20:14;;;;;;;5.32;3.80;;;;;;;22.29;100.00;96420.59;5069529;28;20056;-51
2022/05/12 05:22:42;;;;;;;4.85;3.88;;;;;;;22.25;100.00;96430.16;5068916;28;20067;-47
2022/05/12 05:25:11;;;;;;;6.03;3.90;;;;;;;22.31;100.00;96434.66;5069547;28;20076;-45
2022/05/12 05:27:41;;;;;;;5.83;3.90;;;;;;;22.25;100.00;96436.34;5069826;28;20088;-48
2022/05/12 05:30:13;;;;;;;6.60;4.03;;;;;;;21.94;100.00;96445.22;5069362;28;20072;-47
2022/05/12 05:32:41;;;;;;;7.85;4.32;;;;;;;22.02;100.00;96446.81;5064518;28;20056;-49
2022/05/12 05:35:12;;;;;;;5.10;3.70;;;;;;;22.29;100.00;96450.16;5069804;28;20080;-46
2022/05/12 05:37:41;;;;;;;5.00;3.70;;;;;;;22.17;100.00;96463.50;5069746;28;20063;-46
2022/05/12 05:40:13;;;;;;;6.18;3.47;;;;;;;22.40;100.00;96472.81;5064337;28;20127;-49
2022/05/12 05:42:43;;;;;;;8.80;3.80;;;;;;;22.43;100.00;96473.19;5071396;28;20076;-51
2022/05/12 05:45:12;;;;;;;;;;;;;;;22.47;100.00;96471.75;5069959;28;20064;-49
2022/05/12 05:47:42;;;;;;;9.48;3.60;;;;;;;22.35;100.00;96478.03;5068985;28;19955;-51
2022/05/12 05:50:10;;;;;;;9.90;3.60;;;;;;;22.50;100.00;96484.75;5068880;28;20522;-50
2022/05/12 05:55:24;;;;;;;6.43;3.60;;;;;;;23.06;100.00;96495.66;5067050;28;20523;-49
2022/05/12 05:57:54;;;;;;;7.05;3.80;;;;;;;23.26;100.00;96498.91;5069284;28;20087;-45
2022/05/12 06:00:28;;;;;;;6.63;3.70;;;;;;;22.88;100.00;96502.63;5068692;28;20068;-48
2022/05/12 06:02:56;;;;;;;4.75;3.65;;;;;;;23.35;100.00;96494.09;5068513;28;20071;-51
2022/05/12 06:05:24;;;;;;;4.40;3.20;;;;;;;23.37;90.55;96502.75;5068649;28;20081;-51
2022/05/12 06:07:53;;;;;;;8.07;3.30;;;;;;;24.17;81.77;96506.09;5068681;28;20158;-46
2022/05/12 06:10:22;;;;;;;7.07;3.70;;;;;;;22.67;100.00;96503.81;5069089;28;20052;-49
2022/05/12 06:12:51;;;;;;;6.55;3.88;;;;;;;22.89;100.00;96515.00;5069250;28;20526;-48
2022/05/12 06:15:21;;;;;;;5.97;3.35;;;;;;;22.82;96.65;96519.63;5068826;28;20551;-48
2022/05/12 06:17:49;;;;;;;8.63;3.70;;;;;;;22.85;99.99;96515.66;5064979;28;20114;-53
2022/05/12 06:20:21;;;;;;;5.95;3.85;;;;;;;22.95;100.00;96516.00;5064398;28;20068;-52
2022/05/12 06:22:49;;;;;;;8.40;3.50;;;;;;;22.71;95.49;96518.47;5066765;28;20468;-48
2022/05/12 06:25:19;;;;;;;6.30;3.70;;;;;;;23.04;100.00;96525.44;5068334;28;20084;-50
2022/05/12 06:27:47;;;;;;;8.35;4.15;;;;;;;23.04;99.38;96525.44;5068852;28;20686;-47
2022/05/12 06:30:15;;;;;;;5.75;3.60;;;;;;;22.86;100.00;96528.88;5068242;28;20082;-50
2022/05/12 06:32:46;;;;;;;5.38;3.95;;;;;;;23.14;98.48;96535.69;5067708;28;20064;-50
2022/05/12 06:35:16;;;;;;;;;;;;;;;23.41;93.33;96533.56;5068378;28;20071;-54
2022/05/12 06:37:44;;;;;;;7.18;3.50;;;;;;;23.34;93.93;96536.31;5068496;28;19959;-49
2022/05/12 06:40:13;;;;;;;7.22;3.30;;;;;;;23.61;90.98;96539.53;5068383;28;20083;-51
2022/05/12 06:42:47;;;;;;;5.70;3.10;;;;;;;23.61;88.09;96544.94;5068463;28;20630;-48
2022/05/12 06:45:19;;;;;;;5.00;3.67;;;;;;;23.57;87.99;96549.13;5068334;28;20644;-49
2022/05/12 06:47:50;;;;;;;5.53;3.60;;;;;;;23.93;86.34;96545.59;5068266;28;20076;-49
2022/05/12 06:50:21;;;;;;;7.50;3.80;;;;;;;23.95;86.07;96552.63;5068464;28;20100;-52
2022/05/12 06:52:49;;;;;;;;;;;;;;;24.16;88.92;96547.56;5068716;28;20075;-53
2022/05/12 06:55:17;;;;;;;6.30;3.47;;;;;;;23.92;84.34;96552.03;5068341;28;20347;-49
2022/05/12 06:57:46;;;;;;;6.70;3.97;;;;;;;23.62;91.58;96545.75;5068753;28;20110;-51
2022/05/12 07:00:16;;;;;;;7.88;3.60;;;;;;;23.42;94.34;96548.66;5068066;28;20456;-48
2022/05/12 07:02:45;;;;;;;7.45;3.63;;;;;;;23.27;92.35;96557.09;5068021;28;20083;-52
2022/05/12 07:05:18;;;;;;;8.40;3.70;;;;;;;23.65;92.20;96558.75;5062867;28;20075;-51
2022/05/12 07:07:47;;;;;;;5.97;3.38;;;;;;;23.68;92.62;96564.56;5068160;28;20127;-47
2022/05/12 07:10:16;;;;;;;7.50;3.65;;;;;;;23.85;90.41;96558.56;5067855;28;20091;-50
2022/05/12 07:12:44;;;;;;;6.60;3.60;;;;;;;23.87;89.70;96559.97;5067560;28;20072;-52
2022/05/12 07:15:13;;;;;;;5.80;3.40;;;;;;;24.20;84.05;96561.41;5067924;28;20068;-51
2022/05/12 07:17:43;;;;;;;5.32;3.70;;;;;;;24.12;81.22;96554.47;5065975;28;20064;-48
2022/05/12 07:28:38;;;;;;;8.68;3.67;;;;;;;24.67;73.17;96571.53;5065434;28;20067;-48
2022/05/12 07:31:09;;;;;;;6.57;3.50;;;;;;;24.50;73.73;96571.38;5068378;28;20136;-54
2022/05/12 07:33:40;;;;;;;5.53;3.65;;;;;;;24.69;79.98;96566.75;5067093;28;20068;-53
2022/05/12 07:36:11;;;;;;;8.43;3.72;;;;;;;24.87;73.12;96577.44;5068127;28;20068;-51
2022/05/12 07:38:42;;;;;;;4.97;3.58;;;;;;;25.40;74.94;96576.59;5067593;28;20067;-52
2022/05/12 07:41:12;;;;;;;6.60;3.65;;;;;;;24.87;72.22;96572.88;5067705;28;20075;-50
2022/05/12 07:43:41;;;;;;;8.32;3.92;;;;;;;25.22;78.64;96576.69;5067900;28;20064;-52
2022/05/12 07:46:11;;;;;;;8.38;3.58;;;;;;;24.84;78.10;96578.75;5064934;28;20088;-54
2022/05/12 07:48:40;;;;;;;6.63;3.60;;;;;;;24.29;77.48;96573.50;5068515;28;20088;-53
2022/05/12 07:51:09;;;;;;;6.18;3.72;;;;;;;24.37;85.97;96577.78;5069988;28;20102;-49
2022/05/12 07:53:38;;;;;;;5.50;3.70;;;;;;;24.57;79.08;96570.25;5065608;28;20056;-50
2022/05/12 07:56:09;;;;;;;8.52;3.60;;;;;;;24.59;82.66;96570.81;5067262;28;20072;-52
2022/05/12 07:58:37;;;;;;;4.53;3.63;;;;;;;24.71;81.76;96573.56;5067491;28;20056;-48
2022/05/12 08:01:06;;;;;;;5.25;3.55;;;;;;;24.55;70.50;96585.81;5067597;28;20076;-50
2022/05/12 08:03:35;;;;;;;5.63;3.50;;;;;;;24.44;76.70;96569.63;5068173;28;20555;-52
2022/05/12 08:06:03;;;;;;;5.68;3.40;;;;;;;24.38;69.46;96582.09;5071492;28;20458;-51
2022/05/12 08:08:32;;;;;;;6.05;3.72;;;;;;;24.55;78.43;96588.53;5070784;28;20072;-50
2022/05/12 08:11:00;;;;;;;6.60;3.42;;;;;;;24.51;72.02;96581.94;5070718;28;20527;-48
2022/05/12 08:13:31;;;;;;;6.95;3.53;;;;;;;24.67;70.75;96580.44;5071256;28;20154;-49
2022/05/12 08:15:59;;;;;;;7.68;3.78;;;;;;;24.56;71.04;96559.69;5071656;28;20113;-50
2022/05/12 08:18:28;;;;;;;4.55;3.53;;;;;;;24.60;69.59;96587.81;5071247;28;20056;-50
2022/05/12 08:20:56;;;;;;;5.95;3.35;;;;;;;24.64;70.82;96580.94;5064063;28;20064;-47
2022/05/12 08:23:25;;;;;;;6.97;3.53;;;;;;;24.83;73.08;96578.97;5064230;28;20545;-49
2022/05/12 08:25:54;;;;;;;5.82;3.30;;;;;;;24.85;72.30;96579.56;5070483;28;20076;-48
2022/05/12 08:28:27;;;;;;;5.35;3.55;;;;;;;24.93;70.72;96581.91;5070303;28;20107;-48
2022/05/12 08:30:57;;;;;;;5.80;3.60;;;;;;;25.08;66.78;96584.97;5071052;28;20091;-47
2022/05/12 08:33:25;;;;;;;;;;;;;;;25.53;70.39;96572.78;5070752;28;20075;-46
2022/05/12 08:35:54;;;;;;;8.48;3.85;;;;;;;25.69;68.44;96574.78;5071153;28;19964;-49
2022/05/12 08:38:23;;;;;;;4.65;3.83;;;;;;;25.55;70.48;96579.59;5070597;28;20072;-49
2022/05/12 08:41:03;;;;;;;5.43;3.67;;;;;;;25.42;64.81;96582.56;5070996;28;20592;-53
2022/05/12 08:43:36;;;;;;;6.65;3.53;;;;;;;25.57;69.23;96579.41;5065696;28;20462;-52
2022/05/12 08:46:08;;;;;;;4.97;3.50;;;;;;;25.98;58.92;96600.03;5071060;28;20082;-50
2022/05/12 08:48:39;;;;;;;6.40;4.03;;;;;;;25.91;58.68;96603.91;5070147;28;20491;-50
2022/05/12 08:51:08;;;;;;;7.03;4.03;;;;;;;26.33;58.96;96590.97;5068853;28;20068;-52
2022/05/12 08:53:42;;;;;;;6.75;4.00;;;;;;;26.01;56.82;96596.81;5070208;28;20068;-53
2022/05/12 08:56:12;;;;;;;6.90;4.03;;;;;;;25.75;63.32;96598.16;5070489;28;20083;-52
2022/05/12 08:58:42;;;;;;;9.33;3.87;;;;;;;26.07;62.84;96600.44;5070359;28;20071;-54
2022/05/12 09:01:18;;;;;;;6.93;4.15;;;;;;;26.25;58.41;96596.75;5065133;28;20529;-49
2022/05/12 09:03:58;;;;;;;5.53;3.70;;;;;;;26.19;60.47;96598.53;5065688;28;20068;-52
2022/05/12 09:06:29;;;;;;;5.50;3.50;;;;;;;26.12;59.33;96600.56;5069525;28;20044;-47
2022/05/12 09:09:03;;;;;;;7.63;4.00;;;;;;;26.51;60.51;96587.28;5066300;28;20071;-52
2022/05/12 09:11:38;;;;;;;7.22;3.78;;;;;;;26.27;58.19;96586.53;5065739;28;20064;-50
2022/05/12 09:14:08;;;;;;;7.25;4.15;;;;;;;26.49;61.68;96582.09;5069272;28;20545;-53
2022/05/12 09:16:37;;;;;;;6.70;4.20;;;;;;;26.02;59.12;96597.66;5069757;28;20064;-53
2022/05/12 09:19:06;;;;;;;6.13;3.45;;;;;;;26.22;62.78;96581.00;5070328;28;20072;-47
2022/05/12 09:21:37;;;;;;;6.95;3.92;;;;;;;26.35;57.71;96579.91;5069633;28;20628;-51
2022/05/12 09:24:07;;;;;;;7.28;3.53;;;;;;;25.92;58.13;96592.88;5066942;28;20060;-51
2022/05/12 09:26:39;;;;;;;7.88;4.07;;;;;;;26.30;59.20;96585.22;5069122;28;20056;-50
2022/05/12 09:29:21;;;;;;;4.38;3.72;;;;;;;26.38;56.10;96601.88;5063773;28;20075;-52
2022/05/12 09:31:52;;;;;;;8.40;4.18;;;;;;;26.44;55.70;96595.50;5069200;28;20067;-51
2022/05/12 09:34:29;;;;;;;7.13;3.80;;;;;;;27.28;56.63;96599.41;5069746;28;20472;-52
2022/05/12 09:37:02;;;;;;;7.18;3.80;;;;;;;26.82;57.34;96601.34;5070439;28;20079;-54
2022/05/12 09:39:36;;;;;;;7.03;3.97;;;;;;;27.01;56.77;96604.63;5069019;28;20079;-52
2022/05/12 09:42:07;;;;;;;6.13;4.00;;;;;;;26.67;57.45;96593.75;5069487;28;20565;-52
2022/05/12 09:44:35;;;;;;;7.03;4.13;;;;;;;26.30;56.57;96590.63;5069390;28;20064;-49
2022/05/12 09:47:07;;;;;;;5.45;4.18;;;;;;;26.12;58.31;96592.47;5068661;28;20068;-52
2022/05/12 09:49:38;;;;;;;4.75;3.80;;;;;;;26.26;58.69;96590.31;5066540;28;20459;-52
2022/05/12 09:52:24;;;;;;;7.05;4.30;;;;;;;26.96;57.73;96581.00;5065984;28;20084;-52
2022/05/12 09:55:10;;;;;;;7.25;3.80;;;;;;;27.50;52.73;96594.88;5069934;28;20451;-53
2022/05/12 09:57:47;;;;;;;4.90;3.92;;;;;;;27.82;52.89;96583.41;5069754;28;20454;-52
2022/05/12 10:00:27;;;;;;;8.48;4.35;;;;;;;27.89;52.10;96579.44;5064280;28;20478;-51
2022/05/12 10:08:45;;;;;;;7.93;4.47;;;;;;;27.06;58.14;96578.47;5068299;28;20399;-54
2022/05/12 10:11:15;;;;;;;7.88;4.38;;;;;;;28.01;56.12;96587.47;5068904;28;20072;-53
2022/05/12 10:13:47;;;;;;;6.68;4.22;;;;;;;27.49;56.22;96573.44;5068711;28;20435;-54
2022/05/12 10:16:18;;;;;;;8.00;4.47;;;;;;;26.98;55.95;96578.91;5069272;28;20123;-52
2022/05/12 10:18:51;;;;;;;5.43;3.85;;;;;;;26.79;60.24;96561.25;5069294;28;20066;-53
2022/05/12 10:21:22;;;;;;;9.48;4.50;;;;;;;26.96;55.87;96579.13;5068818;28;20079;-53
2022/05/12 10:24:01;;;;;;;6.07;3.60;;;;;;;26.48;60.10;96555.31;5068422;28;20065;-51
2022/05/12 10:26:35;;;;;;;6.32;4.18;;;;;;;26.74;57.44;96570.09;5068758;28;20470;-49
2022/05/12 10:29:21;;;;;;;4.55;4.03;;;;;;;26.61;59.30;96587.47;5063844;28;20458;-55
2022/05/12 10:31:55;;;;;;;5.07;4.35;;;;;;;26.70;58.82;96582.47;5067921;28;20510;-53
2022/05/12 10:34:42;;;;;;;7.60;4.40;;;;;;;26.84;57.52;96572.13;5065430;28;20092;-57
2022/05/12 10:37:25;;;;;;;6.22;4.57;;;;;;;26.88;62.17;96581.44;5070937;28;20075;-53
2022/05/12 10:40:01;;;;;;;10.10;4.10;;;;;;;26.84;60.71;96564.03;5070693;28;20088;-49
2022/05/12 10:42:37;;;;;;;5.28;4.25;;;;;;;27.14;58.14;96585.38;5070159;28;20072;-53
2022/05/12 10:45:16;;;;;;;4.85;4.10;;;;;;;27.43;55.71;96575.28;5070349;28;20458;-53
2022/05/12 10:47:54;;;;;;;5.28;4.25;;;;;;;27.47;53.61;96571.00;5069435;28;20474;-52
2022/05/12 10:50:27;;;;;;;6.00;4.57;;;;;;;28.13;54.71;96560.22;5065862;28;20071;-51
2022/05/12 10:53:03;;;;;;;7.15;4.15;;;;;;;27.79;55.70;96567.66;5068310;28;20075;-50
2022/05/12 10:55:40;;;;;;;7.47;4.40;;;;;;;27.94;55.47;96565.13;5064263;28;20071;-53
2022/05/12 10:58:20;;;;;;;10.10;4.68;;;;;;;27.93;54.03;96564.31;5067939;28;20084;-53
2022/05/12 11:01:01;;;;;;;7.38;4.47;;;;;;;27.83;55.55;96579.63;5066717;28;20080;-53
2022/05/12 11:03:33;;;;;;;6.03;3.67;;;;;;;27.97;53.75;96572.75;5065079;28;20475;-52
2022/05/12 11:06:05;;;;;;;5.63;4.25;;;;;;;28.52;53.15;96554.69;5067544;28;20076;-53
2022/05/12 11:08:37;;;;;;;6.97;4.53;;;;;;;28.45;54.76;96559.50;5068282;28;20060;-53
2022/05/12 11:11:09;;;;;;;8.40;4.47;;;;;;;27.80;57.78;96559.25;5059271;28;20068;-47
2022/05/12 11:13:40;;;;;;;7.03;4.75;;;;;;;28.31;59.61;96559.03;5067905;28;20067;-50
2022/05/12 11:16:13;;;;;;;7.53;4.07;;;;;;;28.65;55.76;96561.59;5068915;28;20084;-52
2022/05/12 11:18:46;;;;;;;6.60;4.80;;;;;;;28.34;54.87;96562.06;5068169;28;20455;-50
2022/05/12 11:21:18;;;;;;;7.80;4.72;;;;;;;28.43;52.36;96556.22;5067879;28;20094;-48
2022/05/12 11:23:54;;;;;;;7.40;4.88;;;;;;;27.72;56.17;96551.56;5067979;28;20064;-45
2022/05/12 11:26:39;;;;;;;6.53;4.45;;;;;;;27.68;55.79;96545.81;5068289;28;20044;-48
2022/05/12 11:32:04;;;;;;;6.80;4.40;;;;;;;27.97;54.25;96552.97;5065844;28;20071;-45
2022/05/12 11:34:33;;;;;;;5.63;4.18;;;;;;;27.85;51.36;96537.66;5067584;28;20538;-49
2022/05/12 11:37:29;;;;;;;9.55;4.30;;;;;;;28.05;56.10;96542.50;5068980;28;20722;-50
2022/05/12 11:40:00;;;;;;;7.38;4.38;;;;;;;28.72;56.41;96527.72;5068113;28;20313;-58
2022/05/12 11:44:23;;;;;;;6.25;4.70;;;;;;;28.68;54.81;96547.50;5073255;28;20075;-50
2022/05/12 11:45:36;;;;;;;8.95;4.65;;;;;;;29.63;51.41;96537.66;5071344;28;20083;-47
2022/05/12 11:48:31;;;;;;;7.70;4.88;;;;;;;29.22;50.16;96544.72;5067993;28;20076;-51
2022/05/12 11:51:11;;;;;;;6.18;4.30;;;;;;;29.10;55.04;96529.41;5063108;28;20072;-53
2022/05/12 11:53:55;;;;;;;8.80;4.40;;;;;;;29.55;51.14;96527.25;5065441;28;20067;-50
2022/05/12 11:56:42;;;;;;;5.95;4.10;;;;;;;28.85;44.64;96527.28;5071317;28;20067;-48
2022/05/12 11:59:24;;;;;;;5.45;4.10;;;;;;;29.12;45.93;96525.63;5073200;28;20478;-50
2022/05/12 12:01:56;;;;;;;5.78;4.07;;;;;;;29.21;43.27;96521.34;5066090;28;20075;-49
2022/05/12 12:04:43;;;;;;;7.28;4.60;;;;;;;29.56;51.01;96518.03;5071330;28;20091;-48
2022/05/12 12:07:15;;;;;;;10.07;4.55;;;;;;;29.08;49.50;96519.91;5071588;28;20076;-48